createdAt,value
2018-05-23T00:01:40.882Z,40.60
2018-05-23T00:04:22.921Z,40.30
2018-05-23T00:05:24.846Z,41.60
2018-05-23T00:06:22.732Z,42.30
2018-05-23T00:07:25.075Z,40.80
2018-05-23T00:08:22.592Z,41.20
2018-05-23T00:10:49.884Z,41.30
2018-05-23T00:11:49.888Z,43.50
2018-05-23T00:12:49.735Z,43.90
2018-05-23T00:15:31.929Z,43.60
2018-05-23T00:18:13.893Z,46.30
2018-05-23T00:27:20.775Z,47.50
2018-05-23T00:28:20.698Z,47.80
2018-05-23T00:29:20.598Z,46.90
2018-05-23T00:30:20.656Z,48.60
2018-05-23T00:31:20.431Z,47.80
2018-05-23T00:32:22.464Z,47.30
2018-05-23T00:46:35.911Z,49.30
2018-05-23T00:47:35.748Z,52.20
2018-05-23T00:48:35.773Z,53.60
2018-05-23T00:49:35.582Z,50.80
2018-05-23T00:50:35.595Z,52.80
2018-05-23T00:51:35.536Z,51.90
2018-05-23T00:52:35.398Z,51.30
2018-05-23T00:53:35.285Z,50.50
2018-05-23T00:54:35.323Z,48.90
2018-05-23T00:55:35.137Z,50.90
2018-05-23T00:56:35.119Z,50.20
2018-05-23T00:57:34.962Z,50.60
2018-05-23T00:58:34.914Z,50.60
2018-05-23T00:59:34.805Z,50.80
2018-05-23T01:00:34.868Z,50.30
2018-05-23T01:01:34.652Z,52.40
2018-05-23T01:04:16.892Z,52.80
2018-05-23T01:05:16.896Z,55.80
2018-05-23T01:06:16.756Z,56.30
2018-05-23T01:07:16.787Z,55.10
2018-05-23T01:08:16.576Z,52.40
2018-05-23T01:09:16.573Z,53.60
2018-05-23T01:10:16.432Z,53.60
2018-05-23T01:11:16.406Z,53.10
2018-05-23T01:12:16.267Z,51.70
2018-05-23T01:13:16.280Z,51.40
2018-05-23T01:14:16.117Z,49.40
2018-05-23T01:15:16.095Z,51.50
2018-05-23T01:16:15.982Z,50.70
2018-05-23T01:17:15.948Z,54.60
2018-05-23T01:18:15.798Z,53.20
2018-05-23T01:19:15.811Z,54.10
2018-05-23T01:20:15.654Z,54.90
2018-05-23T01:21:15.625Z,52.70
2018-05-23T01:22:15.485Z,54.10
2018-05-23T01:23:15.670Z,55.60
2018-05-23T01:24:15.329Z,56.50
2018-05-23T01:25:15.344Z,56.30
2018-05-23T01:26:15.175Z,55.40
2018-05-23T01:27:15.183Z,56.60
2018-05-23T01:28:15.015Z,56.50
2018-05-23T01:29:15.055Z,56.90
2018-05-23T01:30:14.858Z,56.50
2018-05-23T01:32:56.915Z,57.10
2018-05-23T01:35:38.907Z,56.50
2018-05-23T01:36:59.806Z,57.40
2018-05-23T01:37:38.799Z,56.80
2018-05-23T01:38:38.770Z,56.10
2018-05-23T01:39:38.602Z,55.70
2018-05-23T01:40:38.586Z,56.80
2018-05-23T01:41:38.454Z,55.60
2018-05-23T01:42:38.390Z,55.50
2018-05-23T01:43:38.288Z,57.10
2018-05-23T01:44:38.295Z,55.70
2018-05-23T01:45:38.122Z,58.40
2018-05-23T01:46:38.105Z,55.90
2018-05-23T01:47:37.963Z,56.90
2018-05-23T01:48:37.950Z,56.50
2018-05-23T01:49:37.807Z,57.20
2018-05-23T01:50:37.836Z,54.70
2018-05-23T01:51:37.648Z,58.30
2018-05-23T01:52:37.634Z,56.60
2018-05-23T01:53:37.538Z,57.80
2018-05-23T01:54:37.542Z,59.00
2018-05-23T01:55:37.344Z,58.00
2018-05-23T01:58:19.437Z,60.00
2018-05-23T02:01:18.897Z,58.10
2018-05-23T02:02:18.885Z,59.90
2018-05-23T02:03:18.744Z,59.60
2018-05-23T02:04:18.812Z,61.00
2018-05-23T02:05:18.581Z,61.10
2018-05-23T02:06:18.601Z,61.90
2018-05-23T02:07:18.430Z,61.50
2018-05-23T02:08:18.394Z,59.10
2018-05-23T02:09:18.282Z,64.40
2018-05-23T02:10:18.294Z,62.90
2018-05-23T02:11:18.109Z,62.20
2018-05-23T02:12:18.043Z,59.70
2018-05-23T02:13:17.956Z,59.80
2018-05-23T02:14:17.912Z,59.70
2018-05-23T02:15:17.813Z,63.00
2018-05-23T02:16:17.832Z,62.60
2018-05-23T02:17:17.659Z,60.90
2018-05-23T02:18:17.637Z,62.00
2018-05-23T02:19:17.483Z,61.90
2018-05-23T02:20:17.489Z,61.70
2018-05-23T02:21:17.334Z,61.70
2018-05-23T02:22:17.353Z,60.60
2018-05-23T02:23:17.177Z,61.10
2018-05-23T02:24:17.158Z,59.00
2018-05-23T02:25:17.035Z,59.60
2018-05-23T02:26:16.973Z,57.90
2018-05-23T02:27:16.854Z,60.50
2018-05-23T02:28:16.878Z,60.80
2018-05-23T02:29:16.702Z,61.00
2018-05-23T02:30:16.735Z,61.90
2018-05-23T02:31:16.543Z,60.40
2018-05-23T02:33:58.430Z,60.80
2018-05-23T02:34:58.398Z,61.30
2018-05-23T02:35:58.288Z,62.20
2018-05-23T02:36:58.312Z,62.40
2018-05-23T02:37:58.100Z,60.40
2018-05-23T02:38:58.119Z,60.50
2018-05-23T02:39:57.943Z,60.70
2018-05-23T02:40:57.975Z,61.30
2018-05-23T02:41:57.823Z,61.80
2018-05-23T02:42:57.831Z,60.40
2018-05-23T02:43:57.631Z,62.10
2018-05-23T02:44:57.637Z,61.40
2018-05-23T02:45:57.501Z,61.70
2018-05-23T02:46:57.481Z,60.20
2018-05-23T02:47:57.314Z,61.10
2018-05-23T02:48:57.356Z,60.60
2018-05-23T02:49:57.165Z,60.20
2018-05-23T02:50:57.194Z,59.10
2018-05-23T02:51:57.015Z,59.70
2018-05-23T02:52:56.983Z,58.50
2018-05-23T02:53:56.856Z,58.70
2018-05-23T02:54:56.897Z,57.80
2018-05-23T02:55:56.696Z,58.80
2018-05-23T02:56:57.753Z,58.50
2018-05-23T02:57:56.532Z,56.90
2018-05-23T02:58:56.506Z,57.00
2018-05-23T02:59:56.393Z,57.50
2018-05-23T03:00:56.422Z,60.60
2018-05-23T03:01:56.251Z,60.30
2018-05-23T03:02:56.229Z,59.80
2018-05-23T03:03:56.065Z,60.60
2018-05-23T03:06:37.978Z,61.70
2018-05-23T03:07:39.876Z,63.50
2018-05-23T03:08:37.781Z,62.70
2018-05-23T03:09:40.125Z,60.70
2018-05-23T03:10:37.627Z,63.10
2018-05-23T03:11:40.359Z,61.60
2018-05-23T03:12:37.505Z,62.60
2018-05-23T03:15:30.926Z,61.80
2018-05-23T03:16:30.925Z,62.70
2018-05-23T03:17:30.788Z,60.30
2018-05-23T03:18:30.729Z,58.80
2018-05-23T03:19:30.622Z,57.60
2018-05-23T03:34:59.754Z,55.20
2018-05-23T03:35:59.552Z,58.30
2018-05-23T03:38:41.490Z,58.50
2018-05-23T03:41:23.436Z,57.30
2018-05-23T03:42:23.410Z,57.10
2018-05-23T03:43:23.302Z,57.20
2018-05-23T03:44:23.338Z,57.40
2018-05-23T03:45:23.128Z,58.10
2018-05-23T03:46:23.142Z,59.30
2018-05-23T03:47:22.967Z,57.30
2018-05-23T03:48:22.977Z,58.50
2018-05-23T03:49:22.811Z,57.70
2018-05-23T03:50:22.859Z,58.20
2018-05-23T03:51:22.655Z,56.40
2018-05-23T03:52:22.658Z,55.20
2018-05-23T03:53:22.557Z,57.10
2018-05-23T03:54:22.477Z,58.70
2018-05-23T03:55:22.349Z,56.20
2018-05-23T03:56:22.382Z,56.80
2018-05-23T03:57:22.182Z,55.10
2018-05-23T03:58:22.225Z,55.00
2018-05-23T03:59:22.030Z,57.80
2018-05-23T04:00:21.990Z,58.20
2018-05-23T04:01:21.871Z,57.00
2018-05-23T04:02:21.907Z,55.40
2018-05-23T04:03:21.734Z,55.40
2018-05-23T04:04:21.745Z,56.00
2018-05-23T04:05:21.558Z,56.50
2018-05-23T04:06:21.523Z,56.10
2018-05-23T04:07:21.403Z,57.00
2018-05-23T04:08:21.438Z,56.00
2018-05-23T04:09:21.264Z,56.30
2018-05-23T04:10:21.253Z,56.80
2018-05-23T04:11:21.089Z,55.60
2018-05-23T04:12:21.051Z,55.30
2018-05-23T04:13:20.933Z,55.30
2018-05-23T04:14:21.007Z,54.80
2018-05-23T04:15:20.784Z,55.60
2018-05-23T04:16:20.782Z,55.30
2018-05-23T04:17:20.621Z,54.50
2018-05-23T04:18:20.587Z,55.20
2018-05-23T04:19:20.480Z,55.40
2018-05-23T04:20:20.498Z,56.80
2018-05-23T04:21:20.309Z,54.40
2018-05-23T04:22:20.313Z,55.10
2018-05-23T04:23:20.161Z,54.60
2018-05-23T04:24:20.146Z,54.90
2018-05-23T04:25:20.010Z,55.10
2018-05-23T04:26:20.016Z,53.10
2018-05-23T04:27:19.839Z,113.80
2018-05-23T04:28:19.824Z,236.50
2018-05-23T04:29:19.687Z,111.90
2018-05-23T04:30:20.688Z,148.00
2018-05-23T04:31:19.529Z,72.50
2018-05-23T04:34:01.456Z,57.10
2018-05-23T04:35:02.503Z,52.80
2018-05-23T04:36:01.321Z,53.20
2018-05-23T04:38:43.465Z,52.60
2018-05-23T04:39:48.583Z,53.00
2018-05-23T04:40:43.317Z,51.40
2018-05-23T04:41:43.263Z,52.00
2018-05-23T04:42:43.140Z,51.50
2018-05-23T04:43:43.176Z,52.30
2018-05-23T04:44:42.987Z,51.90
2018-05-23T04:45:43.020Z,50.70
2018-05-23T04:46:42.844Z,51.60
2018-05-23T04:49:24.962Z,51.10
2018-05-23T04:50:25.018Z,51.50
2018-05-23T04:51:24.815Z,50.30
2018-05-23T04:52:24.806Z,50.70
2018-05-23T04:53:24.643Z,51.20
2018-05-23T04:54:24.575Z,51.90
2018-05-23T04:55:24.511Z,51.10
2018-05-23T04:56:25.470Z,50.30
2018-05-23T04:57:24.328Z,50.00
2018-05-23T04:58:24.329Z,50.90
2018-05-23T04:59:24.194Z,50.20
2018-05-23T05:02:06.488Z,49.60
2018-05-23T05:03:06.455Z,49.30
2018-05-23T05:04:06.308Z,48.70
2018-05-23T05:05:06.350Z,47.90
2018-05-23T05:06:06.167Z,49.70
2018-05-23T05:07:06.168Z,50.50
2018-05-23T05:08:06.000Z,50.90
2018-05-23T05:30:29.072Z,49.90
2018-05-23T05:31:27.939Z,47.20
2018-05-23T05:32:27.936Z,47.00
2018-05-23T05:33:27.792Z,46.90
2018-05-23T05:34:27.742Z,46.40
2018-05-23T05:35:27.624Z,47.20
2018-05-23T05:36:27.649Z,45.60
2018-05-23T05:37:27.479Z,45.00
2018-05-23T05:38:27.455Z,43.90
2018-05-23T05:39:27.321Z,43.40
2018-05-23T05:40:27.261Z,43.70
2018-05-23T05:41:27.152Z,42.50
2018-05-23T05:42:27.218Z,43.50
2018-05-23T05:43:26.997Z,43.50
2018-05-23T05:44:26.983Z,43.10
2018-05-23T05:45:26.844Z,44.40
2018-05-23T05:48:08.986Z,42.60
2018-05-23T05:49:09.021Z,40.90
2018-05-23T05:50:08.817Z,41.70
2018-05-23T05:52:50.999Z,39.70
2018-05-23T05:53:53.598Z,39.30
2018-05-23T05:54:50.831Z,39.30
2018-05-23T05:57:36.977Z,39.10
2018-05-23T05:58:58.948Z,39.30
2018-05-23T05:59:36.847Z,39.80
2018-05-23T06:00:36.818Z,39.30
2018-05-23T06:01:36.668Z,38.20
2018-05-23T06:02:36.634Z,38.20
2018-05-23T06:03:36.524Z,39.00
2018-05-23T06:04:36.560Z,36.40
2018-05-23T06:05:36.344Z,38.00
2018-05-23T06:06:36.359Z,39.30
2018-05-23T06:07:36.190Z,37.90
2018-05-23T06:10:01.097Z,36.80
2018-05-23T06:21:12.421Z,37.20
2018-05-23T06:22:12.312Z,32.90
2018-05-23T06:23:12.298Z,31.70
2018-05-23T06:24:12.139Z,32.20
2018-05-23T06:25:13.159Z,32.20
2018-05-23T06:26:12.016Z,31.60
2018-05-23T06:27:12.016Z,31.20
2018-05-23T06:28:11.813Z,29.50
2018-05-23T06:29:11.813Z,29.60
2018-05-23T06:30:11.683Z,29.00
2018-05-23T06:31:11.667Z,29.30
2018-05-23T06:32:11.526Z,28.70
2018-05-23T06:33:11.536Z,28.80
2018-05-23T06:34:11.350Z,29.00
2018-05-23T06:35:11.388Z,28.60
2018-05-23T06:36:11.196Z,26.80
2018-05-23T06:38:53.535Z,27.60
2018-05-23T06:39:55.930Z,27.20
2018-05-23T06:40:53.423Z,27.30
2018-05-23T06:41:55.255Z,26.50
2018-05-23T06:42:54.090Z,26.40
2018-05-23T06:45:39.514Z,26.50
2018-05-23T06:46:39.473Z,26.40
2018-05-23T06:47:39.337Z,25.50
2018-05-23T06:48:39.296Z,24.50
2018-05-23T06:49:39.200Z,24.60
2018-05-23T06:50:39.246Z,24.90
2018-05-23T06:51:39.023Z,24.60
2018-05-23T06:52:39.049Z,25.00
2018-05-23T06:53:38.874Z,24.40
2018-05-23T06:54:38.789Z,23.40
2018-05-23T06:57:24.523Z,22.70
2018-05-23T06:58:24.421Z,21.90
2018-05-23T06:59:24.340Z,22.40
2018-05-23T07:00:24.334Z,23.50
2018-05-23T07:01:24.185Z,21.80
2018-05-23T07:02:24.259Z,21.80
2018-05-23T07:03:24.036Z,23.30
2018-05-23T07:06:23.993Z,21.90
2018-05-23T07:07:25.020Z,19.40
2018-05-23T07:08:23.844Z,20.30
2018-05-23T07:09:23.858Z,19.70
2018-05-23T07:10:23.701Z,18.00
2018-05-23T07:13:06.029Z,18.40
2018-05-23T07:14:05.981Z,17.00
2018-05-23T07:15:05.848Z,19.40
2018-05-23T07:16:05.882Z,19.60
2018-05-23T07:17:05.695Z,18.90
2018-05-23T07:18:05.796Z,18.50
2018-05-23T07:19:05.537Z,18.80
2018-05-23T07:20:05.459Z,18.40
2018-05-23T07:21:05.400Z,18.10
2018-05-23T07:22:05.309Z,17.70
2018-05-23T07:23:05.247Z,18.10
2018-05-23T07:24:05.259Z,16.10
2018-05-23T07:25:05.088Z,17.40
2018-05-23T07:26:05.134Z,17.50
2018-05-23T07:27:04.915Z,17.20
2018-05-23T07:28:05.901Z,16.60
2018-05-23T07:29:04.793Z,16.50
2018-05-23T07:31:47.028Z,15.80
2018-05-23T07:32:47.087Z,15.90
2018-05-23T07:33:46.879Z,15.30
2018-05-23T07:34:46.862Z,15.80
2018-05-23T07:35:46.705Z,15.90
2018-05-23T07:36:46.672Z,15.90
2018-05-23T07:37:46.561Z,16.50
2018-05-23T07:38:46.611Z,15.50
2018-05-23T07:39:46.464Z,14.90
2018-05-23T07:40:46.408Z,15.30
2018-05-23T07:41:46.266Z,14.00
2018-05-23T07:42:46.206Z,11.90
2018-05-23T07:43:46.159Z,11.90
2018-05-23T07:46:28.013Z,11.20
2018-05-23T07:47:28.003Z,10.50
2018-05-23T07:48:27.882Z,10.10
2018-05-23T07:49:27.807Z,10.90
2018-05-23T07:50:27.811Z,11.30
2018-05-23T07:51:27.727Z,10.50
2018-05-23T07:52:27.571Z,10.80
2018-05-23T07:53:27.577Z,11.20
2018-05-23T07:54:27.429Z,11.00
2018-05-23T07:55:27.447Z,10.90
2018-05-23T07:56:27.274Z,10.50
2018-05-23T07:57:27.248Z,9.60
2018-05-23T07:58:27.131Z,9.60
2018-05-23T07:59:27.067Z,9.80
2018-05-23T08:00:27.002Z,10.20
2018-05-23T08:01:26.982Z,10.10
2018-05-23T08:02:26.809Z,10.60
2018-05-23T08:05:09.044Z,10.60
2018-05-23T08:06:08.981Z,11.50
2018-05-23T08:07:08.870Z,11.40
2018-05-23T08:09:51.018Z,11.10
2018-05-23T08:10:51.024Z,11.60
2018-05-23T08:11:50.876Z,10.70
2018-05-23T08:12:50.907Z,10.40
2018-05-23T08:13:50.719Z,9.90
2018-05-23T08:14:50.747Z,10.80
2018-05-23T08:15:50.620Z,10.20
2018-05-23T08:16:50.621Z,10.50
2018-05-23T08:17:50.427Z,10.00
2018-05-23T08:18:50.444Z,10.00
2018-05-23T08:19:50.272Z,9.50
2018-05-23T08:20:50.277Z,9.50
2018-05-23T08:21:50.121Z,9.60
2018-05-23T08:22:50.155Z,10.60
2018-05-23T08:23:49.971Z,9.60
2018-05-23T08:26:32.052Z,10.60
2018-05-23T08:27:32.069Z,10.90
2018-05-23T08:28:31.877Z,11.60
2018-05-23T08:29:31.885Z,11.00
2018-05-23T08:30:31.740Z,10.70
2018-05-23T08:31:32.736Z,11.10
2018-05-23T08:32:31.583Z,11.90
2018-05-23T08:35:13.529Z,10.70
2018-05-23T08:36:13.472Z,9.90
2018-05-23T08:37:13.402Z,10.50
2018-05-23T08:39:55.551Z,11.00
2018-05-23T08:40:55.500Z,10.60
2018-05-23T08:41:55.406Z,10.30
2018-05-23T08:42:55.316Z,9.80
2018-05-23T08:43:55.250Z,10.50
2018-05-23T08:46:37.534Z,10.50
2018-05-23T08:47:37.515Z,10.70
2018-05-23T08:48:37.399Z,9.90
2018-05-23T08:51:19.531Z,10.40
2018-05-23T08:52:19.511Z,10.60
2018-05-23T08:53:19.392Z,11.00
2018-05-23T08:54:19.363Z,10.80
2018-05-23T08:55:19.256Z,10.70
2018-05-23T08:58:01.562Z,11.20
2018-05-23T08:59:06.367Z,10.50
2018-05-23T09:00:01.396Z,11.00
2018-05-23T09:01:01.358Z,10.90
2018-05-23T09:02:01.272Z,11.30
2018-05-23T09:03:01.303Z,10.70
2018-05-23T09:04:01.122Z,10.50
2018-05-23T09:05:01.220Z,10.00
2018-05-23T09:06:00.988Z,9.50
2018-05-23T09:08:43.058Z,10.30
2018-05-23T09:09:43.091Z,9.20
2018-05-23T09:10:42.929Z,8.50
2018-05-23T09:11:42.888Z,7.80
2018-05-23T09:12:42.825Z,8.50
2018-05-23T09:13:42.821Z,8.80
2018-05-23T09:14:42.640Z,8.20
2018-05-23T09:15:42.754Z,7.90
2018-05-23T09:16:42.521Z,7.70
2018-05-23T09:17:42.533Z,8.50
2018-05-23T09:18:42.479Z,8.60
2018-05-23T09:19:42.329Z,8.40
2018-05-23T09:20:42.239Z,7.20
2018-05-23T09:21:42.274Z,6.80
2018-05-23T09:22:42.097Z,5.90
2018-05-23T09:23:42.158Z,6.90
2018-05-23T09:24:41.972Z,6.40
2018-05-23T09:25:41.968Z,6.30
2018-05-23T09:26:41.828Z,6.80
2018-05-23T09:27:41.878Z,7.80
2018-05-23T09:28:41.787Z,7.20
2018-05-23T09:29:41.716Z,7.20
2018-05-23T09:30:41.575Z,7.10
2018-05-23T09:31:41.611Z,6.60
2018-05-23T09:32:41.435Z,6.30
2018-05-23T09:33:41.455Z,6.10
2018-05-23T09:34:41.323Z,7.00
2018-05-23T09:35:41.344Z,6.80
2018-05-23T09:36:41.187Z,7.00
2018-05-23T09:37:41.238Z,6.30
2018-05-23T09:38:41.046Z,6.30
2018-05-23T09:39:41.061Z,6.80
2018-05-23T09:40:41.030Z,7.20
2018-05-23T09:41:40.945Z,6.90
2018-05-23T09:42:40.812Z,6.10
2018-05-23T09:43:40.849Z,6.40
2018-05-23T09:44:40.771Z,6.10
2018-05-23T09:45:40.694Z,6.10
2018-05-23T09:46:40.545Z,6.40
2018-05-23T09:47:40.564Z,6.30
2018-05-23T09:48:40.404Z,6.20
2018-05-23T09:51:22.592Z,6.40
2018-05-23T09:52:22.613Z,6.40
2018-05-23T09:53:22.423Z,6.00
2018-05-23T09:54:22.491Z,5.90
2018-05-23T09:55:22.300Z,6.20
2018-05-23T09:56:23.385Z,6.90
2018-05-23T09:57:22.204Z,7.00
2018-05-23T09:58:22.219Z,7.20
2018-05-23T09:59:22.065Z,6.80
2018-05-23T10:00:22.014Z,6.40
2018-05-23T10:01:21.950Z,7.50
2018-05-23T10:02:21.932Z,6.60
2018-05-23T10:03:21.902Z,6.80
2018-05-23T10:04:21.891Z,7.40
2018-05-23T10:05:21.665Z,6.10
2018-05-23T10:06:21.648Z,6.40
2018-05-23T10:07:21.529Z,6.60
2018-05-23T10:08:22.537Z,6.20
2018-05-23T10:09:21.401Z,6.30
2018-05-23T10:10:21.381Z,6.20
2018-05-23T10:11:21.270Z,6.30
2018-05-23T10:12:22.350Z,6.80
2018-05-23T10:13:21.141Z,6.70
2018-05-23T10:14:21.193Z,6.30
2018-05-23T10:15:21.022Z,6.10
2018-05-23T10:16:21.031Z,6.40
2018-05-23T10:17:20.873Z,6.90
2018-05-23T10:18:20.950Z,6.50
2018-05-23T10:19:20.739Z,6.30
2018-05-23T10:20:20.741Z,6.70
2018-05-23T10:21:20.610Z,6.40
2018-05-23T10:22:20.674Z,6.30
2018-05-23T10:23:20.472Z,6.10
2018-05-23T10:24:20.437Z,6.20
2018-05-23T10:25:20.336Z,5.80
2018-05-23T10:26:20.425Z,5.90
2018-05-23T10:27:20.195Z,6.20
2018-05-23T10:30:02.072Z,5.80
2018-05-23T10:31:02.074Z,5.90
2018-05-23T10:32:02.019Z,6.00
2018-05-23T10:33:02.004Z,6.40
2018-05-23T10:34:01.817Z,5.60
2018-05-23T10:35:01.785Z,6.00
2018-05-23T10:36:01.658Z,5.40
2018-05-23T10:37:01.689Z,5.40
2018-05-23T10:38:01.532Z,5.80
2018-05-23T10:39:01.542Z,5.60
2018-05-23T10:40:01.391Z,5.30
2018-05-23T10:42:43.595Z,5.70
2018-05-23T10:43:43.647Z,5.40
2018-05-23T10:44:43.440Z,4.40
2018-05-23T10:45:43.454Z,3.90
2018-05-23T10:46:43.307Z,4.00
2018-05-23T10:49:25.817Z,3.70
2018-05-23T10:52:07.671Z,4.80
2018-05-23T10:53:07.634Z,4.60
2018-05-23T10:54:07.472Z,3.80
2018-05-23T10:55:07.446Z,3.70
2018-05-23T10:56:07.305Z,3.80
2018-05-23T10:58:49.638Z,3.50
2018-05-23T10:59:49.559Z,3.30
2018-05-23T11:00:49.441Z,3.30
2018-05-23T11:01:49.466Z,3.20
2018-05-23T11:02:49.386Z,2.90
2018-05-23T11:03:49.327Z,2.80
2018-05-23T11:04:49.197Z,2.80
2018-05-23T11:07:31.121Z,2.70
2018-05-23T11:08:31.073Z,2.50
2018-05-23T11:09:30.986Z,3.10
2018-05-23T11:10:30.991Z,2.60
2018-05-23T11:11:30.803Z,2.70
2018-05-23T11:12:30.806Z,3.00
2018-05-23T11:13:30.655Z,2.80
2018-05-23T11:14:30.688Z,2.90
2018-05-23T11:15:30.503Z,2.60
2018-05-23T11:18:12.606Z,2.70
2018-05-23T11:19:12.635Z,3.00
2018-05-23T11:20:12.490Z,3.00
2018-05-23T11:21:12.417Z,2.90
2018-05-23T11:22:12.299Z,3.10
2018-05-23T11:23:12.329Z,3.20
2018-05-23T11:24:12.170Z,3.00
2018-05-23T11:25:12.168Z,2.50
2018-05-23T11:26:12.020Z,2.70
2018-05-23T11:27:12.058Z,2.20
2018-05-23T11:28:11.857Z,2.30
2018-05-23T11:30:54.134Z,2.60
2018-05-23T11:31:54.062Z,2.40
2018-05-23T11:32:53.960Z,2.10
2018-05-23T11:33:53.980Z,2.50
2018-05-23T11:34:53.812Z,2.30
2018-05-23T11:35:54.847Z,2.40
2018-05-23T11:36:53.652Z,2.40
2018-05-23T11:37:53.696Z,2.50
2018-05-23T11:38:53.509Z,2.70
2018-05-23T11:39:53.525Z,2.70
2018-05-23T11:40:53.347Z,2.80
2018-05-23T11:41:53.286Z,2.80
2018-05-23T11:42:53.208Z,2.70
2018-05-23T11:43:53.217Z,2.60
2018-05-23T11:44:53.065Z,2.80
2018-05-23T11:45:53.070Z,2.80
2018-05-23T11:46:52.905Z,2.70
2018-05-23T11:47:52.942Z,2.80
2018-05-23T11:48:52.743Z,3.10
2018-05-23T11:49:52.743Z,3.10
2018-05-23T11:50:52.607Z,2.90
2018-05-23T11:51:52.557Z,3.00
2018-05-23T11:52:52.456Z,3.20
2018-05-23T11:53:52.480Z,3.40
2018-05-23T11:54:52.279Z,3.10
2018-05-23T11:55:52.314Z,3.30
2018-05-23T11:56:52.138Z,3.40
2018-05-23T11:59:34.116Z,4.00
2018-05-23T12:00:34.136Z,3.60
2018-05-23T12:01:33.988Z,3.30
2018-05-23T12:02:34.000Z,3.50
2018-05-23T12:03:33.808Z,4.20
2018-05-23T12:04:33.791Z,4.10
2018-05-23T12:05:33.654Z,3.70
2018-05-23T12:06:33.603Z,3.70
2018-05-23T12:07:33.521Z,3.60
2018-05-23T12:08:33.535Z,3.70
2018-05-23T12:09:33.373Z,3.60
2018-05-23T12:10:33.395Z,3.80
2018-05-23T12:11:33.207Z,3.70
2018-05-23T12:12:33.141Z,3.90
2018-05-23T12:13:33.056Z,4.40
2018-05-23T12:16:15.147Z,4.10
2018-05-23T12:17:15.170Z,4.20
2018-05-23T12:18:14.965Z,4.20
2018-05-23T12:20:57.117Z,4.00
2018-05-23T12:21:57.102Z,3.90
2018-05-23T12:22:56.986Z,3.80
2018-05-23T12:23:56.948Z,3.60
2018-05-23T12:24:59.177Z,4.10
2018-05-23T12:25:56.776Z,4.20
2018-05-23T12:26:56.712Z,4.80
2018-05-23T12:27:56.685Z,4.90
2018-05-23T12:28:57.240Z,5.80
2018-05-23T12:29:56.495Z,6.10
2018-05-23T12:30:56.345Z,6.10
2018-05-23T12:31:56.336Z,6.10
2018-05-23T12:32:56.212Z,5.80
2018-05-23T12:33:56.215Z,6.00
2018-05-23T12:34:56.040Z,6.00
2018-05-23T12:35:56.026Z,5.80
2018-05-23T12:36:55.990Z,5.60
2018-05-23T12:37:55.902Z,5.70
2018-05-23T12:38:55.752Z,5.90
2018-05-23T12:39:55.754Z,5.40
2018-05-23T12:40:55.642Z,5.70
2018-05-23T12:41:55.682Z,5.20
2018-05-23T12:42:55.546Z,5.30
2018-05-23T12:43:55.462Z,4.80
2018-05-23T12:44:55.324Z,5.00
2018-05-23T12:45:55.268Z,5.20
2018-05-23T12:46:55.144Z,5.30
2018-05-23T12:47:55.560Z,4.90
2018-05-23T12:48:55.006Z,4.90
2018-05-23T12:49:54.933Z,4.70
2018-05-23T12:50:54.843Z,5.00
2018-05-23T12:51:54.897Z,4.70
2018-05-23T12:52:54.737Z,4.20
2018-05-23T12:53:54.744Z,4.70
2018-05-23T12:54:54.557Z,4.50
2018-05-23T12:55:54.510Z,4.40
2018-05-23T12:56:54.415Z,4.40
2018-05-23T12:59:36.646Z,3.80
2018-05-23T13:00:36.630Z,4.00
2018-05-23T13:01:36.476Z,4.40
2018-05-23T13:02:36.414Z,3.80
2018-05-23T13:03:36.354Z,4.50
2018-05-23T13:04:36.379Z,4.10
2018-05-23T13:05:36.185Z,4.30
2018-05-23T13:06:36.156Z,4.30
2018-05-23T13:07:36.032Z,4.30
2018-05-23T13:08:36.072Z,3.70
2018-05-23T13:09:35.869Z,4.10
2018-05-23T13:10:35.906Z,4.00
2018-05-23T13:11:35.733Z,4.30
2018-05-23T13:12:35.706Z,3.90
2018-05-23T13:13:35.572Z,3.90
2018-05-23T13:14:36.557Z,4.20
2018-05-23T13:15:35.417Z,4.30
2018-05-23T13:18:17.639Z,4.70
2018-05-23T13:19:17.639Z,4.30
2018-05-23T13:20:17.490Z,4.40
2018-05-23T13:21:17.527Z,4.50
2018-05-23T13:22:17.332Z,4.60
2018-05-23T13:23:17.333Z,4.50
2018-05-23T13:24:17.240Z,4.50
2018-05-23T13:25:17.242Z,4.40
2018-05-23T13:26:17.035Z,4.30
2018-05-23T13:28:59.171Z,4.50
2018-05-23T13:30:00.159Z,4.80
2018-05-23T13:30:58.997Z,4.90
2018-05-23T13:31:58.916Z,4.90
2018-05-23T13:32:58.835Z,4.80
2018-05-23T13:35:41.157Z,4.60
2018-05-23T13:36:42.123Z,4.40
2018-05-23T13:37:40.988Z,4.40
2018-05-23T13:38:40.932Z,4.00
2018-05-23T13:39:40.855Z,4.10
2018-05-23T13:40:41.851Z,4.30
2018-05-23T13:41:40.686Z,4.30
2018-05-23T13:42:40.646Z,4.30
2018-05-23T13:43:40.538Z,4.20
2018-05-23T13:44:40.826Z,4.00
2018-05-23T13:45:40.578Z,4.10
2018-05-23T13:46:40.458Z,4.20
2018-05-23T13:47:40.280Z,4.30
2018-05-23T13:48:40.186Z,4.40
2018-05-23T13:49:40.106Z,4.30
2018-05-23T13:50:40.038Z,4.10
2018-05-23T13:51:39.978Z,4.30
2018-05-23T13:54:22.164Z,4.10
2018-05-23T13:55:22.177Z,4.50
2018-05-23T13:56:22.025Z,4.60
2018-05-23T13:59:08.161Z,4.70
2018-05-23T14:01:50.229Z,4.60
2018-05-23T14:02:50.083Z,4.70
2018-05-23T14:03:50.003Z,4.80
2018-05-23T14:04:50.057Z,4.30
2018-05-23T14:05:49.869Z,4.50
2018-05-23T14:06:49.816Z,4.70
2018-05-23T14:07:49.738Z,4.70
2018-05-23T14:08:49.634Z,4.10
2018-05-23T14:09:49.614Z,4.50
2018-05-23T14:10:49.621Z,4.60
2018-05-23T14:11:49.408Z,4.50
2018-05-23T14:12:49.424Z,4.90
2018-05-23T14:13:49.264Z,4.50
2018-05-23T14:14:49.301Z,5.10
2018-05-23T14:15:49.124Z,4.80
2018-05-23T14:16:49.109Z,4.60
2018-05-23T14:17:48.998Z,4.50
2018-05-23T14:18:49.032Z,4.80
2018-05-23T14:19:48.817Z,4.90
2018-05-23T14:20:48.845Z,4.80
2018-05-23T14:21:48.687Z,4.80
2018-05-23T14:22:48.716Z,5.00
2018-05-23T14:23:48.563Z,5.00
2018-05-23T14:26:30.656Z,4.80
2018-05-23T14:27:30.596Z,4.90
2018-05-23T14:28:30.639Z,5.00
2018-05-23T14:29:30.448Z,4.90
2018-05-23T14:30:30.354Z,5.10
2018-05-23T14:33:12.684Z,5.50
2018-05-23T14:34:12.704Z,5.00
2018-05-23T14:35:12.514Z,5.20
2018-05-23T14:36:12.478Z,5.80
2018-05-23T14:37:12.367Z,5.40
2018-05-23T14:38:12.386Z,5.10
2018-05-23T14:39:12.283Z,4.80
2018-05-23T14:40:12.204Z,5.30
2018-05-23T14:41:12.079Z,5.30
2018-05-23T14:42:12.104Z,5.70
2018-05-23T14:43:11.958Z,5.50
2018-05-23T14:44:11.956Z,5.20
2018-05-23T14:45:11.783Z,5.60
2018-05-23T14:46:11.732Z,5.20
2018-05-23T14:47:11.631Z,5.40
2018-05-23T14:48:11.668Z,5.40
2018-05-23T14:49:11.503Z,5.70
2018-05-23T14:50:11.458Z,5.90
2018-05-23T14:51:11.330Z,5.80
2018-05-23T14:53:53.184Z,5.50
2018-05-23T14:54:53.191Z,5.50
2018-05-23T14:55:53.028Z,5.70
2018-05-23T14:58:35.164Z,5.90
2018-05-23T14:59:35.199Z,6.40
2018-05-23T15:00:35.017Z,5.80
2018-05-23T15:01:34.965Z,5.90
2018-05-23T15:02:34.865Z,6.50
2018-05-23T15:05:17.196Z,6.00
2018-05-23T15:06:17.180Z,6.40
2018-05-23T15:07:17.017Z,6.00
2018-05-23T15:08:16.988Z,6.30
2018-05-23T15:09:16.890Z,5.70
2018-05-23T15:10:16.943Z,5.80
2018-05-23T15:11:16.730Z,5.90
2018-05-23T15:12:16.725Z,6.20
2018-05-23T15:13:16.583Z,6.30
2018-05-23T15:14:16.710Z,6.00
2018-05-23T15:15:16.444Z,6.50
2018-05-23T15:16:16.441Z,6.20
2018-05-23T15:17:16.297Z,5.90
2018-05-23T15:18:16.246Z,6.00
2018-05-23T15:19:16.134Z,6.90
2018-05-23T15:20:16.192Z,5.90
2018-05-23T15:21:16.006Z,5.70
2018-05-23T15:23:58.200Z,5.50
2018-05-23T15:24:58.256Z,5.50
2018-05-23T15:25:58.048Z,6.20
2018-05-23T15:26:58.073Z,6.00
2018-05-23T15:27:57.880Z,5.90
2018-05-23T15:28:57.881Z,5.50
2018-05-23T15:29:57.737Z,5.20
2018-05-23T15:30:57.730Z,5.70
2018-05-23T15:31:57.588Z,5.40
2018-05-23T15:34:39.706Z,6.20
2018-05-23T15:37:21.692Z,32.10
2018-05-23T16:03:01.712Z,33.10
2018-05-23T16:04:01.471Z,27.70
2018-05-23T16:05:01.508Z,7.60
2018-05-23T16:06:01.328Z,6.10
2018-05-23T16:07:01.302Z,6.10
2018-05-23T16:08:01.270Z,5.80
2018-05-23T16:09:01.220Z,5.80
2018-05-23T16:10:01.031Z,6.40
2018-05-23T16:11:01.031Z,6.10
2018-05-23T16:12:00.883Z,5.60
2018-05-23T16:13:00.967Z,5.30
2018-05-23T16:14:00.744Z,5.40
2018-05-23T16:15:00.744Z,5.80
2018-05-23T16:16:00.595Z,6.00
2018-05-23T16:17:00.555Z,5.70
2018-05-23T16:18:00.456Z,5.50
2018-05-23T16:19:00.491Z,6.10
2018-05-23T16:20:00.286Z,6.40
2018-05-23T16:21:00.275Z,5.80
2018-05-23T16:22:00.145Z,6.00
2018-05-23T16:23:00.186Z,5.70
2018-05-23T16:24:00.012Z,6.00
2018-05-23T16:25:00.005Z,6.80
2018-05-23T16:25:59.874Z,6.70
2018-05-23T16:26:59.896Z,6.30
2018-05-23T16:27:59.700Z,6.10